Pikeville, North Carolina
Current Conditions -  °F | °C
As of 5:55 AM on Wednesday 22 Oct 2014 (Local Time) from KGWW Reporting Station
Clear Clear  
Wind Chill: 50°   Ceiling: Unl
Heat Index: 50°   Visibility: 10mi
Dew Point: 45°   Wind: 7mph
Humidity: 82%   Direction: 330°NNW
Pressure: 29.92"   Gusts: NA
Location:  35.5°N, 77.98°W
Report Text: KGWW 220955Z AUTO 33006KT 10SM CLR 10/07 A2992 RMK AO2 T01000070
Loading
Personal Weather Stations






























Interactive Weather Map
Tropical Storm Tracking
New forecast layout! Learn more

10-Day Weather Forecast

Advertisements
Track Severe Weather on mobile